RPC240 RPVD-RPVB
Flight info
| Callsign | RPC240 |
|---|---|
| Flight time | 0h 58m |
| Altitude | 4500 |
| Route | VFR |
| Aircraft | C152/L-SDF/C |
Departure
| Time | 2026-04-23 08:35 |
|---|---|
| Airport | Sibulan Airport (RPVD) |
Arrival
| Time | 2026-04-23 09:34 |
|---|---|
| Airport | Bacolod-Silay International Airport (RPVB) |
| Time | Latitude | Longitude | Altitude | Speed | Heading |
|---|---|---|---|---|---|
| 2026-04-23 08:16 | 9.33401 | 123.29362 | 46 ft | 0 kts | 89° |
| 2026-04-23 08:32 | 9.33403 | 123.29365 | 46 ft | 1 kts | 38° |
| 2026-04-23 08:32 | 9.33407 | 123.29365 | 46 ft | 1 kts | 346° |
| 2026-04-23 08:33 | 9.33422 | 123.29361 | 47 ft | 2 kts | 341° |
| 2026-04-23 08:33 | 9.33432 | 123.29357 | 47 ft | 5 kts | 334° |
| 2026-04-23 08:33 | 9.33464 | 123.29382 | 47 ft | 6 kts | 93° |
| 2026-04-23 08:33 | 9.33463 | 123.29389 | 48 ft | 0 kts | 92° |
| 2026-04-23 08:34 | 9.33463 | 123.29391 | 48 ft | 5 kts | 91° |
| 2026-04-23 08:34 | 9.33451 | 123.29625 | 46 ft | 59 kts | 91° |
| 2026-04-23 08:34 | 9.33400 | 123.30103 | 144 ft | 76 kts | 91° |
| 2026-04-23 08:34 | 9.33368 | 123.30665 | 279 ft | 82 kts | 84° |
| 2026-04-23 08:35 | 9.33381 | 123.31243 | 389 ft | 80 kts | 78° |
| 2026-04-23 08:35 | 9.33652 | 123.31710 | 541 ft | 79 kts | 34° |
| 2026-04-23 08:35 | 9.34214 | 123.31731 | 643 ft | 92 kts | 339° |
| 2026-04-23 08:35 | 9.34697 | 123.31306 | 785 ft | 91 kts | 319° |
| 2026-04-23 08:36 | 9.35142 | 123.30853 | 925 ft | 90 kts | 321° |
| 2026-04-23 08:36 | 9.35597 | 123.30414 | 1038 ft | 91 kts | 320° |
| 2026-04-23 08:36 | 9.36071 | 123.29983 | 1151 ft | 92 kts | 323° |
| 2026-04-23 08:36 | 9.36561 | 123.29569 | 1267 ft | 92 kts | 324° |
| 2026-04-23 08:37 | 9.37046 | 123.29147 | 1347 ft | 90 kts | 321° |
| 2026-04-23 08:37 | 9.37516 | 123.28746 | 1425 ft | 89 kts | 324° |
| 2026-04-23 08:37 | 9.38011 | 123.28361 | 1529 ft | 91 kts | 327° |
| 2026-04-23 08:37 | 9.38503 | 123.27969 | 1652 ft | 90 kts | 325° |
| 2026-04-23 08:38 | 9.38987 | 123.27580 | 1749 ft | 88 kts | 327° |
| 2026-04-23 08:38 | 9.39471 | 123.27199 | 1825 ft | 88 kts | 326° |
| 2026-04-23 08:38 | 9.39939 | 123.26795 | 1914 ft | 91 kts | 324° |
| 2026-04-23 08:38 | 9.40403 | 123.26373 | 2021 ft | 87 kts | 320° |
| 2026-04-23 08:39 | 9.40844 | 123.25963 | 2105 ft | 85 kts | 321° |
| 2026-04-23 08:39 | 9.41299 | 123.25582 | 2203 ft | 85 kts | 326° |
| 2026-04-23 08:39 | 9.41786 | 123.25225 | 2311 ft | 88 kts | 332° |
| 2026-04-23 08:39 | 9.42316 | 123.24896 | 2420 ft | 90 kts | 332° |
| 2026-04-23 08:40 | 9.42834 | 123.24553 | 2546 ft | 89 kts | 331° |
| 2026-04-23 08:40 | 9.43350 | 123.24186 | 2656 ft | 90 kts | 329° |
| 2026-04-23 08:40 | 9.43844 | 123.23811 | 2781 ft | 90 kts | 326° |
| 2026-04-23 08:40 | 9.44327 | 123.23408 | 2897 ft | 91 kts | 324° |
| 2026-04-23 08:41 | 9.44818 | 123.23007 | 2999 ft | 90 kts | 327° |
| 2026-04-23 08:41 | 9.45309 | 123.22615 | 3097 ft | 90 kts | 327° |
| 2026-04-23 08:41 | 9.45799 | 123.22220 | 3198 ft | 90 kts | 327° |
| 2026-04-23 08:41 | 9.46305 | 123.21823 | 3298 ft | 93 kts | 328° |
| 2026-04-23 08:42 | 9.46817 | 123.21417 | 3396 ft | 94 kts | 327° |
| 2026-04-23 08:42 | 9.47328 | 123.21010 | 3484 ft | 93 kts | 327° |
| 2026-04-23 08:42 | 9.47835 | 123.20612 | 3582 ft | 92 kts | 327° |
| 2026-04-23 08:42 | 9.48368 | 123.20270 | 3675 ft | 90 kts | 334° |
| 2026-04-23 08:43 | 9.48907 | 123.19943 | 3769 ft | 90 kts | 334° |
| 2026-04-23 08:43 | 9.49441 | 123.19612 | 3864 ft | 90 kts | 334° |
| 2026-04-23 08:43 | 9.49794 | 123.19393 | 3927 ft | 90 kts | 334° |
| 2026-04-23 08:43 | 9.50520 | 123.18952 | 4030 ft | 92 kts | 334° |
| 2026-04-23 08:44 | 9.50885 | 123.18727 | 4081 ft | 93 kts | 334° |
| 2026-04-23 08:44 | 9.51640 | 123.18282 | 4176 ft | 94 kts | 338° |
| 2026-04-23 08:44 | 9.52035 | 123.18101 | 4225 ft | 94 kts | 340° |
| 2026-04-23 08:44 | 9.52838 | 123.17735 | 4325 ft | 95 kts | 340° |
| 2026-04-23 08:45 | 9.53235 | 123.17553 | 4379 ft | 95 kts | 340° |
| 2026-04-23 08:45 | 9.53838 | 123.17277 | 4448 ft | 95 kts | 340° |
| 2026-04-23 08:45 | 9.54648 | 123.16909 | 4497 ft | 99 kts | 340° |
| 2026-04-23 08:45 | 9.55075 | 123.16717 | 4500 ft | 100 kts | 340° |
| 2026-04-23 08:46 | 9.55714 | 123.16427 | 4497 ft | 101 kts | 340° |
| 2026-04-23 08:46 | 9.56356 | 123.16135 | 4505 ft | 101 kts | 340° |
| 2026-04-23 08:46 | 9.57008 | 123.15857 | 4507 ft | 102 kts | 343° |
| 2026-04-23 08:46 | 9.57648 | 123.15567 | 4506 ft | 104 kts | 331° |
| 2026-04-23 08:47 | 9.58201 | 123.15088 | 4503 ft | 106 kts | 319° |
| 2026-04-23 08:47 | 9.58718 | 123.14538 | 4503 ft | 108 kts | 318° |
| 2026-04-23 08:47 | 9.59226 | 123.13986 | 4505 ft | 105 kts | 317° |
| 2026-04-23 08:47 | 9.59736 | 123.13456 | 4512 ft | 106 kts | 318° |
| 2026-04-23 08:48 | 9.60256 | 123.12897 | 4505 ft | 110 kts | 317° |
| 2026-04-23 08:48 | 9.60773 | 123.12330 | 4508 ft | 109 kts | 316° |
| 2026-04-23 08:48 | 9.61294 | 123.11783 | 4504 ft | 107 kts | 317° |
| 2026-04-23 08:48 | 9.61810 | 123.11253 | 4509 ft | 106 kts | 319° |
| 2026-04-23 08:49 | 9.62334 | 123.10713 | 4509 ft | 109 kts | 317° |
| 2026-04-23 08:49 | 9.62871 | 123.10168 | 4510 ft | 109 kts | 318° |
| 2026-04-23 08:49 | 9.63409 | 123.09618 | 4509 ft | 111 kts | 318° |
| 2026-04-23 08:49 | 9.63946 | 123.09055 | 4510 ft | 111 kts | 317° |
| 2026-04-23 08:50 | 9.64490 | 123.08499 | 4507 ft | 110 kts | 317° |
| 2026-04-23 08:50 | 9.65019 | 123.07954 | 4504 ft | 108 kts | 317° |
| 2026-04-23 08:50 | 9.65537 | 123.07405 | 4503 ft | 108 kts | 317° |
| 2026-04-23 08:50 | 9.66054 | 123.06852 | 4503 ft | 109 kts | 317° |
| 2026-04-23 08:51 | 9.66577 | 123.06281 | 4510 ft | 113 kts | 317° |
| 2026-04-23 08:51 | 9.67111 | 123.05683 | 4509 ft | 114 kts | 316° |
| 2026-04-23 08:51 | 9.67660 | 123.05109 | 4506 ft | 113 kts | 316° |
| 2026-04-23 08:51 | 9.68206 | 123.04554 | 4506 ft | 111 kts | 317° |
| 2026-04-23 08:52 | 9.68735 | 123.03993 | 4501 ft | 110 kts | 317° |
| 2026-04-23 08:52 | 9.69254 | 123.03434 | 4497 ft | 107 kts | 317° |
| 2026-04-23 08:52 | 9.69764 | 123.02896 | 4494 ft | 105 kts | 317° |
| 2026-04-23 08:52 | 9.70272 | 123.02373 | 4497 ft | 105 kts | 317° |
| 2026-04-23 08:53 | 9.70795 | 123.01843 | 4503 ft | 107 kts | 317° |
| 2026-04-23 08:53 | 9.71314 | 123.01303 | 4500 ft | 108 kts | 317° |
| 2026-04-23 08:53 | 9.71823 | 123.00749 | 4498 ft | 105 kts | 317° |
| 2026-04-23 08:53 | 9.72318 | 123.00211 | 4491 ft | 102 kts | 317° |
| 2026-04-23 08:54 | 9.72798 | 122.99720 | 4489 ft | 91 kts | 317° |
| 2026-04-23 08:54 | 9.73226 | 122.99278 | 4493 ft | 88 kts | 318° |
| 2026-04-23 08:54 | 9.73652 | 122.98802 | 4497 ft | 97 kts | 317° |
| 2026-04-23 08:54 | 9.74123 | 122.98287 | 4498 ft | 101 kts | 317° |
| 2026-04-23 08:55 | 9.74607 | 122.97772 | 4495 ft | 98 kts | 316° |
| 2026-04-23 08:55 | 9.75044 | 122.97301 | 4490 ft | 87 kts | 317° |
| 2026-04-23 08:55 | 9.75476 | 122.96849 | 4495 ft | 94 kts | 317° |
| 2026-04-23 08:55 | 9.75952 | 122.96375 | 4500 ft | 96 kts | 320° |
| 2026-04-23 08:56 | 9.76459 | 122.95928 | 4502 ft | 97 kts | 328° |
| 2026-04-23 08:56 | 9.77049 | 122.95579 | 4507 ft | 100 kts | 336° |
| 2026-04-23 08:56 | 9.77662 | 122.95240 | 4510 ft | 100 kts | 335° |
| 2026-04-23 08:56 | 9.78276 | 122.94909 | 4508 ft | 99 kts | 335° |
| 2026-04-23 08:57 | 9.78876 | 122.94573 | 4508 ft | 98 kts | 335° |
| 2026-04-23 08:57 | 9.79472 | 122.94228 | 4509 ft | 100 kts | 334° |
| 2026-04-23 08:57 | 9.80096 | 122.93917 | 4511 ft | 100 kts | 340° |
| 2026-04-23 08:57 | 9.80754 | 122.93669 | 4505 ft | 101 kts | 348° |
| 2026-04-23 08:58 | 9.81414 | 122.93478 | 4506 ft | 98 kts | 348° |
| 2026-04-23 08:58 | 9.82071 | 122.93296 | 4508 ft | 97 kts | 348° |
| 2026-04-23 08:58 | 9.82736 | 122.93140 | 4500 ft | 97 kts | 356° |
| 2026-04-23 08:58 | 9.83382 | 122.93035 | 4495 ft | 91 kts | 355° |
| 2026-04-23 08:59 | 9.84014 | 122.92957 | 4497 ft | 93 kts | 356° |
| 2026-04-23 08:59 | 9.84658 | 122.92894 | 4502 ft | 93 kts | 358° |
| 2026-04-23 08:59 | 9.85327 | 122.92799 | 4513 ft | 100 kts | 357° |
| 2026-04-23 08:59 | 9.86035 | 122.92733 | 4503 ft | 101 kts | 359° |
| 2026-04-23 09:00 | 9.86733 | 122.92669 | 4502 ft | 99 kts | 358° |
| 2026-04-23 09:00 | 9.87408 | 122.92582 | 4505 ft | 98 kts | 356° |
| 2026-04-23 09:00 | 9.88087 | 122.92509 | 4505 ft | 99 kts | 359° |
| 2026-04-23 09:00 | 9.88760 | 122.92437 | 4505 ft | 99 kts | 358° |
| 2026-04-23 09:01 | 9.89456 | 122.92363 | 4510 ft | 103 kts | 358° |
| 2026-04-23 09:01 | 9.90185 | 122.92303 | 4508 ft | 107 kts | 359° |
| 2026-04-23 09:01 | 9.90908 | 122.92230 | 4503 ft | 102 kts | 359° |
| 2026-04-23 09:01 | 9.91592 | 122.92142 | 4502 ft | 98 kts | 358° |
| 2026-04-23 09:02 | 9.92286 | 122.92050 | 4504 ft | 102 kts | 358° |
| 2026-04-23 09:02 | 9.93000 | 122.91966 | 4506 ft | 104 kts | 359° |
| 2026-04-23 09:02 | 9.93711 | 122.91883 | 4506 ft | 101 kts | 358° |
| 2026-04-23 09:02 | 9.94416 | 122.91800 | 4509 ft | 103 kts | 356° |
| 2026-04-23 09:03 | 9.95124 | 122.91690 | 4496 ft | 101 kts | 355° |
| 2026-04-23 09:03 | 9.95810 | 122.91597 | 4499 ft | 98 kts | 356° |
| 2026-04-23 09:03 | 9.96486 | 122.91500 | 4497 ft | 100 kts | 356° |
| 2026-04-23 09:03 | 9.97167 | 122.91391 | 4495 ft | 98 kts | 355° |
| 2026-04-23 09:04 | 9.97849 | 122.91297 | 4496 ft | 100 kts | 358° |
| 2026-04-23 09:04 | 9.98523 | 122.91195 | 4487 ft | 95 kts | 358° |
| 2026-04-23 09:04 | 9.99160 | 122.91112 | 4492 ft | 92 kts | 2° |
| 2026-04-23 09:04 | 9.99807 | 122.91073 | 4491 ft | 93 kts | 2° |
| 2026-04-23 09:05 | 10.00461 | 122.91026 | 4488 ft | 96 kts | 0° |
| 2026-04-23 09:05 | 10.01132 | 122.90993 | 4491 ft | 97 kts | 1° |
| 2026-04-23 09:05 | 10.01791 | 122.90964 | 4495 ft | 94 kts | 1° |
| 2026-04-23 09:05 | 10.02457 | 122.90927 | 4495 ft | 97 kts | 0° |
| 2026-04-23 09:06 | 10.03135 | 122.90891 | 4504 ft | 98 kts | 1° |
| 2026-04-23 09:06 | 10.03811 | 122.90856 | 4499 ft | 97 kts | 2° |
| 2026-04-23 09:06 | 10.04474 | 122.90803 | 4499 ft | 94 kts | 0° |
| 2026-04-23 09:06 | 10.05136 | 122.90766 | 4499 ft | 96 kts | 2° |
| 2026-04-23 09:07 | 10.05809 | 122.90725 | 4499 ft | 97 kts | 1° |
| 2026-04-23 09:07 | 10.06496 | 122.90689 | 4502 ft | 101 kts | 1° |
| 2026-04-23 09:07 | 10.07202 | 122.90658 | 4505 ft | 101 kts | 1° |
| 2026-04-23 09:07 | 10.07898 | 122.90615 | 4507 ft | 100 kts | 1° |
| 2026-04-23 09:08 | 10.08594 | 122.90578 | 4505 ft | 100 kts | 2° |
| 2026-04-23 09:08 | 10.09286 | 122.90533 | 4506 ft | 100 kts | 1° |
| 2026-04-23 09:08 | 10.09979 | 122.90482 | 4504 ft | 100 kts | 1° |
| 2026-04-23 09:08 | 10.10675 | 122.90438 | 4505 ft | 100 kts | 1° |
| 2026-04-23 09:09 | 10.11366 | 122.90395 | 4507 ft | 99 kts | 0° |
| 2026-04-23 09:09 | 10.12055 | 122.90352 | 4509 ft | 99 kts | 1° |
| 2026-04-23 09:09 | 10.12747 | 122.90325 | 4509 ft | 100 kts | 1° |
| 2026-04-23 09:09 | 10.13441 | 122.90281 | 4506 ft | 100 kts | 1° |
| 2026-04-23 09:10 | 10.14133 | 122.90264 | 4488 ft | 101 kts | 6° |
| 2026-04-23 09:10 | 10.15514 | 122.90314 | 4374 ft | 98 kts | 6° |
| 2026-04-23 09:10 | 10.16192 | 122.90378 | 4298 ft | 100 kts | 9° |
| 2026-04-23 09:11 | 10.16884 | 122.90455 | 4229 ft | 100 kts | 9° |
| 2026-04-23 09:11 | 10.17579 | 122.90538 | 4158 ft | 102 kts | 11° |
| 2026-04-23 09:11 | 10.18286 | 122.90621 | 4082 ft | 102 kts | 11° |
| 2026-04-23 09:11 | 10.18996 | 122.90701 | 4017 ft | 104 kts | 10° |
| 2026-04-23 09:12 | 10.19712 | 122.90784 | 3946 ft | 103 kts | 11° |
| 2026-04-23 09:12 | 10.20437 | 122.90854 | 3875 ft | 105 kts | 10° |
| 2026-04-23 09:12 | 10.21162 | 122.90921 | 3804 ft | 104 kts | 9° |
| 2026-04-23 09:12 | 10.21880 | 122.91022 | 3731 ft | 104 kts | 12° |
| 2026-04-23 09:13 | 10.22601 | 122.91120 | 3655 ft | 105 kts | 12° |
| 2026-04-23 09:13 | 10.23324 | 122.91231 | 3581 ft | 104 kts | 13° |
| 2026-04-23 09:13 | 10.24043 | 122.91327 | 3509 ft | 105 kts | 12° |
| 2026-04-23 09:13 | 10.24764 | 122.91416 | 3500 ft | 103 kts | 13° |
| 2026-04-23 09:14 | 10.25472 | 122.91505 | 3497 ft | 102 kts | 13° |
| 2026-04-23 09:14 | 10.26167 | 122.91580 | 3495 ft | 100 kts | 11° |
| 2026-04-23 09:14 | 10.26851 | 122.91659 | 3490 ft | 98 kts | 13° |
| 2026-04-23 09:14 | 10.27517 | 122.91740 | 3485 ft | 95 kts | 13° |
| 2026-04-23 09:15 | 10.28180 | 122.91823 | 3489 ft | 97 kts | 12° |
| 2026-04-23 09:15 | 10.28856 | 122.91919 | 3490 ft | 98 kts | 13° |
| 2026-04-23 09:15 | 10.29525 | 122.91997 | 3491 ft | 97 kts | 12° |
| 2026-04-23 09:15 | 10.30197 | 122.92083 | 3486 ft | 97 kts | 12° |
| 2026-04-23 09:16 | 10.30867 | 122.92153 | 3494 ft | 98 kts | 11° |
| 2026-04-23 09:16 | 10.31548 | 122.92227 | 3485 ft | 97 kts | 11° |
| 2026-04-23 09:16 | 10.32202 | 122.92324 | 3489 ft | 95 kts | 13° |
| 2026-04-23 09:16 | 10.32848 | 122.92439 | 3492 ft | 95 kts | 14° |
| 2026-04-23 09:17 | 10.33504 | 122.92560 | 3496 ft | 97 kts | 13° |
| 2026-04-23 09:17 | 10.34179 | 122.92679 | 3499 ft | 100 kts | 13° |
| 2026-04-23 09:17 | 10.34865 | 122.92795 | 3501 ft | 99 kts | 14° |
| 2026-04-23 09:17 | 10.35556 | 122.92908 | 3502 ft | 101 kts | 14° |
| 2026-04-23 09:18 | 10.36247 | 122.93012 | 3503 ft | 100 kts | 14° |
| 2026-04-23 09:18 | 10.36928 | 122.93131 | 3503 ft | 99 kts | 14° |
| 2026-04-23 09:18 | 10.37614 | 122.93250 | 3504 ft | 101 kts | 14° |
| 2026-04-23 09:18 | 10.38309 | 122.93383 | 3502 ft | 101 kts | 14° |
| 2026-04-23 09:19 | 10.38999 | 122.93507 | 3503 ft | 101 kts | 14° |
| 2026-04-23 09:19 | 10.39698 | 122.93628 | 3500 ft | 101 kts | 15° |
| 2026-04-23 09:19 | 10.40388 | 122.93741 | 3502 ft | 100 kts | 13° |
| 2026-04-23 09:19 | 10.41077 | 122.93856 | 3500 ft | 100 kts | 13° |
| 2026-04-23 09:20 | 10.41761 | 122.93964 | 3503 ft | 99 kts | 14° |
| 2026-04-23 09:20 | 10.42436 | 122.94070 | 3502 ft | 99 kts | 14° |
| 2026-04-23 09:20 | 10.43115 | 122.94194 | 3501 ft | 99 kts | 14° |
| 2026-04-23 09:20 | 10.43789 | 122.94319 | 3508 ft | 98 kts | 14° |
| 2026-04-23 09:21 | 10.44462 | 122.94430 | 3508 ft | 98 kts | 14° |
| 2026-04-23 09:21 | 10.45135 | 122.94544 | 3507 ft | 98 kts | 14° |
| 2026-04-23 09:21 | 10.45814 | 122.94643 | 3507 ft | 99 kts | 14° |
| 2026-04-23 09:21 | 10.46488 | 122.94750 | 3508 ft | 98 kts | 13° |
| 2026-04-23 09:22 | 10.47170 | 122.94868 | 3510 ft | 100 kts | 13° |
| 2026-04-23 09:22 | 10.47849 | 122.94996 | 3511 ft | 99 kts | 13° |
| 2026-04-23 09:22 | 10.48522 | 122.95133 | 3510 ft | 98 kts | 19° |
| 2026-04-23 09:22 | 10.49190 | 122.95304 | 3511 ft | 100 kts | 17° |
| 2026-04-23 09:23 | 10.49851 | 122.95478 | 3510 ft | 100 kts | 19° |
| 2026-04-23 09:23 | 10.50521 | 122.95669 | 3488 ft | 100 kts | 21° |
| 2026-04-23 09:23 | 10.51189 | 122.95870 | 3451 ft | 100 kts | 21° |
| 2026-04-23 09:23 | 10.51849 | 122.96088 | 3399 ft | 100 kts | 21° |
| 2026-04-23 09:24 | 10.52509 | 122.96317 | 3324 ft | 100 kts | 22° |
| 2026-04-23 09:24 | 10.53157 | 122.96554 | 3250 ft | 99 kts | 24° |
| 2026-04-23 09:24 | 10.53795 | 122.96821 | 3160 ft | 99 kts | 27° |
| 2026-04-23 09:24 | 10.54418 | 122.97092 | 3082 ft | 96 kts | 27° |
| 2026-04-23 09:25 | 10.55033 | 122.97356 | 3001 ft | 94 kts | 27° |
| 2026-04-23 09:25 | 10.55642 | 122.97622 | 2877 ft | 95 kts | 28° |
| 2026-04-23 09:25 | 10.56248 | 122.97898 | 2783 ft | 96 kts | 27° |
| 2026-04-23 09:25 | 10.56846 | 122.98186 | 2694 ft | 95 kts | 28° |
| 2026-04-23 09:26 | 10.57436 | 122.98492 | 2611 ft | 95 kts | 30° |
| 2026-04-23 09:26 | 10.58022 | 122.98815 | 2583 ft | 96 kts | 31° |
| 2026-04-23 09:26 | 10.58614 | 122.99127 | 2553 ft | 96 kts | 29° |
| 2026-04-23 09:26 | 10.59213 | 122.99430 | 2548 ft | 95 kts | 28° |
| 2026-04-23 09:27 | 10.59807 | 122.99724 | 2547 ft | 94 kts | 28° |
| 2026-04-23 09:27 | 10.60399 | 123.00014 | 2525 ft | 95 kts | 28° |
| 2026-04-23 09:27 | 10.61001 | 123.00311 | 2515 ft | 96 kts | 28° |
| 2026-04-23 09:27 | 10.61655 | 123.00435 | 2486 ft | 99 kts | 358° |
| 2026-04-23 09:28 | 10.62334 | 123.00366 | 2435 ft | 100 kts | 357° |
| 2026-04-23 09:28 | 10.63035 | 123.00291 | 2385 ft | 100 kts | 356° |
| 2026-04-23 09:28 | 10.63714 | 123.00221 | 2346 ft | 98 kts | 358° |
| 2026-04-23 09:28 | 10.64399 | 123.00156 | 2295 ft | 96 kts | 357° |
| 2026-04-23 09:29 | 10.65049 | 123.00103 | 2262 ft | 95 kts | 359° |
| 2026-04-23 09:29 | 10.65705 | 123.00069 | 2227 ft | 94 kts | 359° |
| 2026-04-23 09:29 | 10.66359 | 123.00052 | 2169 ft | 94 kts | 1° |
| 2026-04-23 09:29 | 10.67011 | 123.00040 | 2144 ft | 93 kts | 1° |
| 2026-04-23 09:30 | 10.67660 | 123.00024 | 2064 ft | 93 kts | 0° |
| 2026-04-23 09:30 | 10.68304 | 122.99995 | 1977 ft | 91 kts | 359° |
| 2026-04-23 09:30 | 10.68938 | 122.99954 | 1869 ft | 92 kts | 359° |
| 2026-04-23 09:30 | 10.69567 | 122.99903 | 1782 ft | 91 kts | 358° |
| 2026-04-23 09:31 | 10.70206 | 122.99862 | 1623 ft | 94 kts | 0° |
| 2026-04-23 09:31 | 10.70838 | 122.99838 | 1527 ft | 89 kts | 1° |
| 2026-04-23 09:31 | 10.71462 | 122.99825 | 1415 ft | 91 kts | 0° |
| 2026-04-23 09:31 | 10.72098 | 122.99835 | 1280 ft | 90 kts | 3° |
| 2026-04-23 09:32 | 10.72709 | 122.99884 | 1219 ft | 89 kts | 7° |
| 2026-04-23 09:32 | 10.73331 | 122.99957 | 1060 ft | 90 kts | 8° |
| 2026-04-23 09:32 | 10.73950 | 123.00022 | 937 ft | 90 kts | 7° |
| 2026-04-23 09:32 | 10.74558 | 123.00141 | 801 ft | 86 kts | 19° |
| 2026-04-23 09:33 | 10.74905 | 123.00287 | 746 ft | 79 kts | 25° |
| 2026-04-23 09:33 | 10.75379 | 123.00528 | 574 ft | 72 kts | 32° |
| 2026-04-23 09:33 | 10.75921 | 123.00871 | 356 ft | 66 kts | 34° |
| 2026-04-23 09:33 | 10.76306 | 123.01102 | 264 ft | 61 kts | 33° |
| 2026-04-23 09:34 | 10.76527 | 123.01233 | 215 ft | 53 kts | 33° |
| 2026-04-23 09:34 | 10.76822 | 123.01412 | 116 ft | 45 kts | 32° |
| 2026-04-23 09:34 | 10.77044 | 123.01545 | 89 ft | 28 kts | 31° |
| 2026-04-23 09:34 | 10.77220 | 123.01648 | 89 ft | 19 kts | 28° |
| 2026-04-23 09:35 | 10.77283 | 123.01646 | 87 ft | 15 kts | 324° |
| 2026-04-23 09:35 | 10.77334 | 123.01571 | 89 ft | 12 kts | 298° |
| 2026-04-23 09:35 | 10.77370 | 123.01508 | 88 ft | 9 kts | 291° |
| 2026-04-23 09:35 | 10.77314 | 123.01453 | 80 ft | 10 kts | 233° |
| 2026-04-23 09:36 | 10.77335 | 123.01406 | 81 ft | 5 kts | 21° |
| 2026-04-23 09:36 | 10.77338 | 123.01408 | 81 ft | 0 kts | 33° |